Morganville, Kansas
Current Conditions -  °F | °C
As of 10:55 PM on Friday 26 Dec 2014 (Local Time) from KCNK Reporting Station
Light Snow Light Snow  
Wind Chill: -9°   Ceiling: 1200
Heat Index: -3°   Visibility: 8mi
Dew Point: -4°   Wind: 12mph
Humidity: 92%   Direction: 310°NW
Pressure: 30.1"   Gusts: NA
Location:  39.47°N, 97.2°W
Report Text: KCNK 270455Z AUTO 31010KT 8SM -SN OVC012 M03/M04 A3010 RMK AO2 UPB38E41SNB25E38B41 SLP209 P0000 T10281039
Loading
Personal Weather Stations






























Interactive Weather Map New forecast layout! Learn more

10-Day Weather Forecast

Advertisements
Track Severe Weather on mobile